Bauer, Brett
United StatesManBorn 19802009 – 2023Runner id 217527
Events
29
2009 – 2023
Best pace
11.315
km/h · 2019
Best finish
3rd
of 42 · 2018
Distance raced
1,987
km · splits not double-counted
Pace over time
km/h · higher is faster
Pace over time: 29 races from 2009 to 2023, ranging from 4.82 to 11.52 kilometres per hour, where higher is faster. A second, age-graded series is drawn above it; the gap between the two is the age credit.
- Actual pace
- Age-graded pace
Results
| Date | Event | Distance | Result | Pace km/h | Placing |
|---|---|---|---|---|---|
| 2009-05-16 | Watershed Preserve 12 Hr Trail RaceUnited States | 12h | 60.559 km | 5.047 | 45/66 |
| 2011-05-14 | 12h | 81.328 km | 6.777 | 27/68 | |
| 2012-05-19 | 12h | 88.819 km | 7.402 | 18/60 | |
| 2012-10-06 | 50km | 6:41:00 h | 7.481 | 61/116 | |
| 2012-10-28 | 50km | 6:50:27 h | 7.309 | 37/59 | |
| 2013-02-24 | 50km | 6:24:08 h | 7.810 | 33/62 | |
| 2013-03-16 | 50km | 5:48:42 h | 8.603 | 160/346 | |
| 2013-07-27 | 50mi | 11:53:28 h | 6.767 | 201/286 | |
| 2014-02-23 | 50km | 6:17:02 h | 7.957 | 13/60 | |
| 2014-03-15 | 50km | 5:51:40 h | 8.531 | 153/348 | |
| 2014-10-04 | 50km | 5:46:10 h | 8.666 | 29/178 | |
| 2015-02-22 | 50km | 5:29:49 h | 9.096 | 8/48 | |
| 2015-03-21 | 50km | 5:34:43 h | 8.963 | 106/328 | |
| 2015-04-25 | 50mi | 8:32:51 h | 9.414 | 9/62 | |
| 2015-06-06 | 100mi | 23:00:10 h | 6.996 | 27/154 | |
| 2015-11-14 | 50km | 6:34:08 h | 7.612 | 4/18 | |
| 2016-02-21 | 50km | 6:11:21 h | 8.079 | 9/26 | |
| 2016-04-16 | 50km | 7:58:31 h | 6.269 | 69/123 | |
| 2016-07-30 | 50mi | 10:24:30 h | 7.731 | 92/262 | |
| 2017-05-20 | 100km | 15:13:00 h | 6.572 | 62/72 | |
| 2018-02-17 | 50km | 6:11:03 h | 8.085 | 10/13 | |
| 2018-03-03 | Wallace Falls Trail Run 50kmUnited States | 50km | 6:20:46 h | 7.879 | 2/15 |
| 2018-03-24 | 12h | 92.698 km | 7.725 | 3/42 | |
| 2018-12-08 | 50km | 5:38:18 h | 8.868 | 81/193 | |
| 2019-04-28 | 50km | 4:25:08 h | 11.315 | 7/57 | |
| 2021-06-05 | 50km | 5:10:05 h | 9.675 | 6/55 | |
| 2021-08-28 | 100mi | 33:21:39 h | 4.824 | 98/110 | |
| 2022-08-13 | 100km | 17:19:38 h | 5.771 | 86/103 | |
| 2023-07-29 | White River 50 Km Endurance RunUnited States | 50km | 7:15:08 h | 6.894 | 11/44 |